Time;durP1;ratioP1;P1;durP2;ratioP2;P2;SDS_P1;SDS_P2;PMS_P1;PMS_P2;Temp;Humidity;BMP_temperature;BMP_pressure;BME280_temperature;BME280_humidity;BME280_pressure;Samples;Min_cycle;Max_cycle;Signal;HPM_P1;HPM_P2
2023/05/24 00:00:52;;;;;;;6.87;4.60;;;;;;;15.77;54.91;99432.38;1767977;79;21604;-60
2023/05/24 00:03:20;;;;;;;6.72;4.55;;;;;;;15.70;54.96;99432.45;1770807;80;20997;-59
2023/05/24 00:05:46;;;;;;;;;;;;;;;15.68;55.03;99425.97;1773279;79;20967;-60
2023/05/24 00:08:15;;;;;;;5.28;3.70;;;;;;;15.72;55.46;99428.75;1768036;79;20173;-61
2023/05/24 00:10:42;;;;;;;;;;;;;;;15.77;55.57;99431.89;1772244;79;21015;-64
2023/05/24 00:13:08;;;;;;;6.72;3.77;;;;;;;15.86;55.92;99433.84;1775418;79;20106;-62
2023/05/24 00:15:34;;;;;;;5.45;4.15;;;;;;;15.76;55.26;99427.56;1772292;79;20985;-61
2023/05/24 00:18:00;;;;;;;5.70;3.85;;;;;;;15.47;55.51;99428.83;1771069;79;21022;-59
2023/05/24 00:20:27;;;;;;;8.65;4.05;;;;;;;15.37;55.93;99430.78;1766786;79;20979;-61
2023/05/24 00:22:55;;;;;;;6.33;4.20;;;;;;;15.34;56.03;99432.80;1775014;78;20979;-62
2023/05/24 00:25:21;;;;;;;7.37;4.42;;;;;;;15.34;56.21;99434.12;1774672;79;21085;-59
2023/05/24 00:27:47;;;;;;;6.78;4.42;;;;;;;15.31;56.21;99441.75;1773823;79;20958;-60
2023/05/24 00:30:14;;;;;;;6.67;3.93;;;;;;;15.32;56.45;99438.19;1772034;79;21525;-61
2023/05/24 00:32:40;;;;;;;7.67;4.12;;;;;;;15.33;56.39;99437.23;1773992;79;21088;-60
2023/05/24 00:35:08;;;;;;;6.03;4.55;;;;;;;15.31;56.53;99443.55;1770834;79;21010;-62
2023/05/24 00:37:36;;;;;;;5.67;3.95;;;;;;;15.29;56.63;99446.30;1776872;79;21007;-60
2023/05/24 00:40:03;;;;;;;5.85;4.35;;;;;;;15.29;56.91;99448.93;1771109;79;20962;-61
2023/05/24 00:42:30;;;;;;;6.20;3.72;;;;;;;15.30;57.05;99437.45;1764178;79;20931;-62
2023/05/24 00:44:56;;;;;;;7.47;3.98;;;;;;;15.30;57.19;99441.88;1769328;79;21022;-60
2023/05/24 00:47:22;;;;;;;7.90;4.75;;;;;;;15.28;57.29;99439.34;1773145;79;21086;-60
2023/05/24 00:49:48;;;;;;;6.67;4.60;;;;;;;15.29;57.40;99438.41;1769920;79;20995;-59
2023/05/24 00:52:16;;;;;;;4.90;4.08;;;;;;;15.35;57.51;99432.70;1774272;79;21344;-63
2023/05/24 00:54:42;;;;;;;7.12;4.72;;;;;;;15.33;57.23;99428.02;1768528;79;21076;-62
2023/05/24 00:57:12;;;;;;;7.62;4.08;;;;;;;15.15;57.43;99430.63;1775998;79;21003;-62
2023/05/24 00:59:40;;;;;;;7.50;3.70;;;;;;;15.07;57.74;99427.70;1746565;79;20956;-63
2023/05/24 01:02:07;;;;;;;8.68;4.20;;;;;;;15.12;57.74;99422.96;1764777;79;21007;-63
2023/05/24 01:04:33;;;;;;;7.90;4.00;;;;;;;15.02;57.58;99423.27;1769317;79;20983;-60
2023/05/24 01:07:11;;;;;;;4.47;3.52;;;;;;;14.91;58.09;99420.91;1771286;79;21038;-61
2023/05/24 01:09:53;;;;;;;4.22;3.55;;;;;;;14.83;58.41;99413.19;1771818;79;21548;-62
2023/05/24 01:12:44;;;;;;;5.95;3.98;;;;;;;14.84;58.74;99410.44;1767688;79;20995;-61
2023/05/24 01:15:46;;;;;;;4.30;3.77;;;;;;;14.88;58.80;99412.41;1772556;79;21396;-64
2023/05/24 01:18:29;;;;;;;7.00;3.98;;;;;;;14.91;58.82;99407.77;1767869;80;21090;-61
2023/05/24 01:21:01;;;;;;;6.62;4.25;;;;;;;14.96;58.79;99412.70;1709505;82;21033;-63
2023/05/24 01:23:52;;;;;;;5.17;4.28;;;;;;;14.98;58.89;99416.05;1702831;82;21012;-65
2023/05/24 01:26:27;;;;;;;8.55;4.45;;;;;;;15.03;59.04;99413.11;1710887;82;20969;-63
2023/05/24 01:28:54;;;;;;;5.05;4.40;;;;;;;15.12;59.06;99411.12;1697927;82;20993;-64
2023/05/24 01:31:21;;;;;;;6.35;4.00;;;;;;;15.11;59.00;99413.41;1701829;82;21053;-62
2023/05/24 01:33:47;;;;;;;6.33;4.60;;;;;;;15.04;59.03;99409.52;1700919;82;20966;-63
2023/05/24 01:36:14;;;;;;;11.10;4.20;;;;;;;15.00;59.10;99412.36;1706003;82;21067;-60
2023/05/24 01:38:41;;;;;;;9.20;4.03;;;;;;;14.99;59.28;99413.32;1706813;82;21016;-61
2023/05/24 01:41:16;;;;;;;7.08;3.87;;;;;;;15.00;59.19;99420.25;1711072;82;20998;-61
2023/05/24 01:43:55;;;;;;;7.35;4.55;;;;;;;14.96;59.10;99421.43;1702886;82;20978;-62
2023/05/24 01:46:26;;;;;;;5.62;4.25;;;;;;;14.91;59.15;99420.91;1709271;81;21049;-63
2023/05/24 01:49:04;;;;;;;5.12;4.17;;;;;;;14.90;59.27;99420.55;1685909;82;21580;-60
2023/05/24 01:51:43;;;;;;;7.95;4.03;;;;;;;14.87;59.26;99430.41;1708639;82;20947;-64
2023/05/24 01:54:09;;;;;;;9.43;4.85;;;;;;;14.90;59.52;99431.52;1707837;81;21032;-60
2023/05/24 01:56:37;;;;;;;7.70;4.92;;;;;;;14.91;59.46;99439.30;1704623;82;21013;-60
2023/05/24 01:59:05;;;;;;;8.43;4.22;;;;;;;14.83;59.27;99441.62;1731106;81;21552;-60
2023/05/24 02:01:35;;;;;;;5.67;4.92;;;;;;;14.74;59.42;99439.64;1734437;81;20997;-62
2023/05/24 02:04:02;;;;;;;9.85;4.65;;;;;;;14.68;59.55;99433.50;1725241;81;21010;-61
2023/05/24 02:06:28;;;;;;;6.03;4.70;;;;;;;14.64;59.56;99433.33;1737260;81;21509;-63
2023/05/24 02:08:58;;;;;;;5.87;4.45;;;;;;;14.65;59.82;99435.03;1732488;81;21086;-62
2023/05/24 02:11:24;;;;;;;5.30;4.35;;;;;;;14.69;59.90;99435.17;1727752;81;21021;-60
2023/05/24 02:13:51;;;;;;;6.65;4.62;;;;;;;14.72;59.85;99437.58;1728420;81;21425;-60
2023/05/24 02:16:17;;;;;;;6.20;5.08;;;;;;;14.78;59.99;99438.47;1733221;81;20979;-62
2023/05/24 02:18:45;;;;;;;5.20;4.67;;;;;;;14.83;60.00;99436.37;1730562;81;21032;-61
2023/05/24 02:21:13;;;;;;;6.60;4.53;;;;;;;14.90;60.08;99447.28;1736769;81;22632;-60
2023/05/24 02:23:42;;;;;;;6.05;4.92;;;;;;;14.93;60.11;99437.42;1735959;81;20974;-60
2023/05/24 02:26:10;;;;;;;8.38;5.17;;;;;;;14.98;60.20;99443.20;1729742;81;20946;-64
2023/05/24 02:28:37;;;;;;;13.93;5.05;;;;;;;15.04;60.26;99442.38;1730951;81;21038;-63
2023/05/24 02:31:05;;;;;;;8.63;5.30;;;;;;;15.07;60.11;99440.84;1731972;81;20915;-61
2023/05/24 02:33:32;;;;;;;8.55;5.62;;;;;;;15.04;60.12;99439.75;1746827;80;21000;-63
2023/05/24 02:36:00;;;;;;;6.25;5.08;;;;;;;15.04;60.28;99443.70;1756162;80;20964;-61
2023/05/24 02:38:30;;;;;;;5.85;4.85;;;;;;;15.03;60.28;99439.39;1758439;80;20909;-60
2023/05/24 02:40:57;;;;;;;9.75;5.60;;;;;;;14.96;60.12;99445.09;1751571;80;21059;-60
2023/05/24 02:43:28;;;;;;;7.12;5.37;;;;;;;14.80;60.25;99443.16;1753322;80;21023;-61
2023/05/24 02:45:53;;;;;;;9.65;4.90;;;;;;;14.72;60.35;99449.41;1753926;80;21031;-64
2023/05/24 02:48:21;;;;;;;7.42;4.30;;;;;;;14.73;60.66;99449.77;1756104;80;20983;-61
2023/05/24 02:50:49;;;;;;;6.25;4.85;;;;;;;14.68;60.55;99447.47;1761525;80;21043;-62
2023/05/24 02:53:15;;;;;;;5.42;4.40;;;;;;;14.70;60.74;99444.28;1758912;80;22227;-61
2023/05/24 02:55:42;;;;;;;6.42;5.03;;;;;;;14.72;60.75;99454.66;1754902;80;21054;-63
2023/05/24 02:58:10;;;;;;;6.50;4.15;;;;;;;14.75;60.94;99457.08;1758535;80;20972;-66
2023/05/24 03:00:37;;;;;;;8.53;4.70;;;;;;;14.79;61.23;99463.82;1756081;80;21027;-61
2023/05/24 03:03:03;;;;;;;8.45;4.62;;;;;;;14.88;61.39;99468.44;1757111;80;21813;-61
2023/05/24 03:05:29;;;;;;;6.83;4.53;;;;;;;14.91;61.27;99465.59;1760574;80;21479;-62
2023/05/24 03:07:57;;;;;;;7.45;4.90;;;;;;;14.93;61.23;99466.34;1759983;80;21007;-64
2023/05/24 03:10:23;;;;;;;5.65;4.95;;;;;;;14.93;61.30;99463.70;1756930;80;21443;-61
2023/05/24 03:12:57;;;;;;;11.80;4.85;;;;;;;14.98;61.35;99464.23;1752760;80;21562;-61
2023/05/24 03:15:19;;;;;;;9.58;4.92;;;;;;;15.00;61.41;99463.63;1753761;80;21028;-63
2023/05/24 03:17:45;;;;;;;8.13;5.22;;;;;;;15.04;61.47;99466.05;1758019;80;21027;-60
2023/05/24 03:20:12;;;;;;;6.75;5.20;;;;;;;15.02;61.26;99465.33;1754308;80;21066;-66
2023/05/24 03:22:38;;;;;;;7.12;5.17;;;;;;;15.04;61.21;99466.05;1753182;80;21027;-66
2023/05/24 03:25:07;;;;;;;7.25;4.65;;;;;;;14.94;61.20;99468.01;1756326;80;21035;-60
2023/05/24 03:27:35;;;;;;;5.17;4.65;;;;;;;14.88;61.27;99467.13;1756935;80;21544;-60
2023/05/24 03:30:05;;;;;;;;;;;;;;;14.85;61.40;99471.28;1764337;80;21325;-61
2023/05/24 03:32:32;;;;;;;8.28;4.80;;;;;;;14.89;61.70;99471.42;1762515;79;20167;-64
2023/05/24 03:35:00;;;;;;;6.65;4.85;;;;;;;14.95;61.69;99472.30;1775104;79;21051;-60
2023/05/24 03:37:27;;;;;;;5.92;4.65;;;;;;;15.03;61.69;99477.52;1775424;79;20983;-60
2023/05/24 03:39:53;;;;;;;9.75;5.30;;;;;;;15.02;61.59;99477.16;1776131;79;20960;-60
2023/05/24 03:42:21;;;;;;;41.53;7.67;;;;;;;15.04;61.63;99476.56;1770841;79;21034;-62
2023/05/24 03:44:47;;;;;;;8.43;4.95;;;;;;;15.03;61.69;99480.15;1773886;79;20912;-61
2023/05/24 03:47:13;;;;;;;6.85;4.97;;;;;;;15.05;61.73;99478.27;1771804;79;20948;-60
2023/05/24 03:49:39;;;;;;;8.50;5.65;;;;;;;15.08;61.83;99474.10;1776493;79;20998;-61
2023/05/24 03:52:06;;;;;;;9.85;5.28;;;;;;;15.14;61.87;99481.55;1771010;79;21057;-60
2023/05/24 03:54:32;;;;;;;6.90;5.12;;;;;;;15.17;61.88;99487.44;1776497;79;21026;-61
2023/05/24 03:56:58;;;;;;;7.33;5.17;;;;;;;15.24;61.94;99485.23;1776719;79;20952;-60
2023/05/24 03:59:24;;;;;;;6.10;5.03;;;;;;;15.25;61.84;99484.27;1776459;79;22254;-60
2023/05/24 04:01:51;;;;;;;9.00;5.23;;;;;;;15.27;61.83;99487.64;1775236;79;21538;-60
2023/05/24 04:04:17;;;;;;;9.45;5.22;;;;;;;15.29;61.79;99492.33;1776101;79;20976;-62
2023/05/24 04:06:43;;;;;;;9.70;5.30;;;;;;;15.31;61.84;99489.09;1770832;79;21002;-62
2023/05/24 04:09:10;;;;;;;10.40;5.40;;;;;;;15.30;61.86;99485.28;1770292;79;21474;-60
2023/05/24 04:11:36;;;;;;;6.58;4.92;;;;;;;15.28;61.84;99486.69;1768780;79;21569;-63
2023/05/24 04:14:02;;;;;;;6.67;4.95;;;;;;;15.29;62.00;99491.02;1767082;79;21537;-63
2023/05/24 04:16:32;;;;;;;9.10;5.30;;;;;;;15.26;61.90;99492.52;1771482;79;21552;-62
2023/05/24 04:19:02;;;;;;;9.43;5.17;;;;;;;15.23;62.11;99494.05;1773026;79;21497;-59
2023/05/24 04:21:25;;;;;;;8.38;4.72;;;;;;;15.25;62.18;99493.48;1770623;81;21003;-60
2023/05/24 04:23:54;;;;;;;6.67;5.17;;;;;;;15.29;62.22;99493.65;1770151;81;21057;-65
2023/05/24 04:26:22;;;;;;;6.42;5.05;;;;;;;15.29;62.09;99492.78;1773533;79;21009;-62
2023/05/24 04:28:51;;;;;;;6.30;5.17;;;;;;;15.26;62.15;99499.09;1757506;79;20991;-60
2023/05/24 04:31:19;;;;;;;6.80;5.22;;;;;;;15.27;62.23;99500.80;1774738;79;21022;-62
2023/05/24 04:33:46;;;;;;;7.10;5.72;;;;;;;15.25;62.25;99498.73;1772902;79;21078;-60
2023/05/24 04:36:16;;;;;;;7.42;5.95;;;;;;;15.21;62.27;99497.29;1774247;79;21021;-63
2023/05/24 04:38:45;;;;;;;10.63;6.12;;;;;;;15.17;62.33;99494.01;1775261;79;21057;-61
2023/05/24 04:41:12;;;;;;;9.10;6.40;;;;;;;15.18;62.53;99496.19;1774032;79;21536;-62
2023/05/24 04:43:39;;;;;;;8.13;5.62;;;;;;;15.21;62.63;99493.34;1774067;79;20995;-61
2023/05/24 04:46:07;;;;;;;7.05;5.70;;;;;;;15.21;62.68;99490.71;1777548;79;21508;-61
2023/05/24 04:48:33;;;;;;;12.90;5.95;;;;;;;15.25;62.77;99500.05;1772083;79;21027;-61
2023/05/24 04:51:00;;;;;;;7.67;6.10;;;;;;;15.29;62.93;99505.48;1767720;79;20986;-60
2023/05/24 04:53:26;;;;;;;8.93;6.22;;;;;;;15.35;62.88;99509.47;1772515;79;21004;-60
2023/05/24 04:55:55;;;;;;;8.35;5.35;;;;;;;15.39;62.94;99510.44;1773910;79;20983;-60
2023/05/24 04:58:20;;;;;;;7.83;5.95;;;;;;;15.46;62.88;99508.23;1770991;78;21475;-61
2023/05/24 05:00:50;;;;;;;11.50;6.10;;;;;;;15.41;62.90;99505.92;1772918;79;21605;-60
2023/05/24 05:03:19;;;;;;;9.50;6.10;;;;;;;15.41;63.04;99518.24;1768017;79;21030;-60
2023/05/24 05:05:46;;;;;;;8.90;5.53;;;;;;;15.39;63.05;99520.97;1774250;79;21058;-64
2023/05/24 05:08:13;;;;;;;7.57;5.30;;;;;;;15.41;62.95;99517.77;1774167;79;20999;-62
2023/05/24 05:10:39;;;;;;;8.30;5.65;;;;;;;15.41;62.95;99517.77;1770936;79;21090;-62
2023/05/24 05:13:06;;;;;;;11.70;6.08;;;;;;;15.40;63.32;99517.86;1774432;79;21522;-63
2023/05/24 05:15:34;;;;;;;9.55;6.00;;;;;;;15.43;63.24;99521.58;1772884;79;20950;-61
2023/05/24 05:18:02;;;;;;;10.13;6.47;;;;;;;15.45;63.33;99529.73;1771183;79;21093;-62
2023/05/24 05:20:30;;;;;;;8.90;5.97;;;;;;;15.50;63.37;99533.85;1763539;80;20947;-62
2023/05/24 05:22:56;;;;;;;7.70;5.97;;;;;;;15.53;63.47;99537.58;1764866;80;20962;-61
2023/05/24 05:25:24;;;;;;;6.90;5.30;;;;;;;15.58;63.54;99543.36;1769219;80;21504;-65
2023/05/24 05:27:58;;;;;;;8.63;6.05;;;;;;;15.63;63.51;99534.67;1766523;79;21526;-61
2023/05/24 05:30:19;;;;;;;6.90;5.70;;;;;;;15.67;63.48;99542.70;1761355;80;21058;-61
2023/05/24 05:32:46;;;;;;;8.05;5.67;;;;;;;15.63;63.27;99551.78;1765068;80;21660;-61
2023/05/24 05:35:13;;;;;;;9.88;5.72;;;;;;;15.64;63.58;99557.39;1749490;81;21027;-63
2023/05/24 05:37:42;;;;;;;11.30;6.58;;;;;;;15.75;63.73;99564.09;1752872;81;20988;-62
2023/05/24 05:40:11;;;;;;;8.50;5.75;;;;;;;15.87;63.78;99557.09;1746359;81;20905;-60
2023/05/24 05:42:38;;;;;;;6.97;5.47;;;;;;;15.97;63.65;99553.34;1749287;81;21090;-62
2023/05/24 05:45:07;;;;;;;10.18;6.10;;;;;;;15.98;63.68;99544.00;1749870;80;21026;-60
2023/05/24 05:47:35;;;;;;;12.23;6.20;;;;;;;16.04;63.74;99547.98;1752536;80;21051;-60
2023/05/24 05:50:14;;;;;;;;;;;;;;;;;;;;;
2023/05/24 05:52:34;;;;;;;13.98;6.22;;;;;;;16.12;63.62;99561.44;1741312;80;21087;-60
2023/05/24 05:55:00;;;;;;;10.60;6.03;;;;;;;16.15;63.62;99563.84;1751526;81;21578;-62
2023/05/24 05:57:27;;;;;;;12.93;7.07;;;;;;;16.18;63.62;99560.98;1747877;81;21449;-60
2023/05/24 05:59:53;;;;;;;11.03;6.60;;;;;;;16.21;63.86;99560.75;1749317;81;21007;-64
2023/05/24 06:02:21;;;;;;;9.65;5.90;;;;;;;16.30;63.90;99557.47;1747113;81;21013;-61
2023/05/24 06:04:49;;;;;;;15.90;6.80;;;;;;;16.39;63.74;99565.66;1742879;81;21043;-60
2023/05/24 06:07:15;;;;;;;;;;;;;;;16.47;63.79;99564.61;1748456;80;21714;-59
2023/05/24 06:09:41;;;;;;;12.05;6.05;;;;;;;16.51;63.59;99572.64;1745109;80;20197;-60
2023/05/24 06:12:09;;;;;;;14.28;6.28;;;;;;;16.36;63.42;99567.20;1730993;81;21069;-62
2023/05/24 06:14:37;;;;;;;11.48;6.25;;;;;;;16.27;63.61;99573.50;1752425;81;20997;-60
2023/05/24 06:17:05;;;;;;;11.08;6.78;;;;;;;16.19;63.46;99582.44;1755902;81;21003;-69
2023/05/24 06:19:32;;;;;;;17.12;6.72;;;;;;;16.07;63.77;99579.36;1756415;81;21138;-66
2023/05/24 06:21:59;;;;;;;7.83;5.40;;;;;;;16.16;64.01;99583.98;1743545;81;21003;-60
2023/05/24 06:24:27;;;;;;;9.87;5.87;;;;;;;16.26;63.98;99594.67;1745620;81;20996;-59
2023/05/24 06:26:53;;;;;;;9.28;5.92;;;;;;;16.31;63.86;99601.29;1748443;81;22014;-60
2023/05/24 06:29:21;;;;;;;8.38;6.12;;;;;;;16.38;63.85;99608.74;1765997;80;21122;-60
2023/05/24 06:31:48;;;;;;;14.85;6.28;;;;;;;16.40;63.99;99605.53;1730120;81;21541;-61
2023/05/24 06:34:19;;;;;;;12.47;5.58;;;;;;;16.53;64.10;99614.22;1755683;80;21555;-60
2023/05/24 06:36:47;;;;;;;8.40;5.45;;;;;;;16.64;63.79;99626.13;1758425;80;20939;-60
2023/05/24 06:39:15;;;;;;;11.15;6.25;;;;;;;16.64;63.86;99622.17;1759009;80;21043;-60
2023/05/24 06:41:42;;;;;;;8.93;5.17;;;;;;;16.69;63.82;99620.05;1774653;80;20994;-60
2023/05/24 06:44:09;;;;;;;11.53;5.70;;;;;;;16.68;63.70;99624.94;1771044;79;21007;-69
2023/05/24 06:46:36;;;;;;;9.65;5.95;;;;;;;16.75;63.91;99622.22;1776878;80;21020;-61
2023/05/24 06:49:05;;;;;;;7.97;6.37;;;;;;;16.72;63.77;99629.05;1734277;81;21440;-60
2023/05/24 06:51:37;;;;;;;9.35;6.70;;;;;;;16.71;63.64;99622.07;1774678;80;21516;-63
2023/05/24 06:54:09;;;;;;;8.85;5.35;;;;;;;16.71;63.50;99624.70;1739378;81;21041;-66
2023/05/24 06:56:33;;;;;;;7.05;5.33;;;;;;;16.64;63.45;99634.04;1769397;79;21528;-61
2023/05/24 06:58:59;;;;;;;6.80;5.22;;;;;;;16.60;63.89;99630.41;1770915;81;21035;-61
2023/05/24 07:01:28;;;;;;;8.07;4.80;;;;;;;16.77;63.94;99637.45;1771210;80;21004;-61
2023/05/24 07:03:54;;;;;;;11.60;4.83;;;;;;;16.95;63.87;99641.02;1766431;79;21158;-61
2023/05/24 07:06:23;;;;;;;8.75;4.40;;;;;;;17.12;63.93;99641.91;1775797;80;21078;-62
2023/05/24 07:08:50;;;;;;;84.80;8.18;;;;;;;17.16;63.34;99638.06;1770475;79;20986;-60
2023/05/24 07:11:16;;;;;;;8.73;4.58;;;;;;;17.21;63.67;99643.84;1770321;78;21058;-61
2023/05/24 07:13:42;;;;;;;8.45;4.20;;;;;;;17.18;63.20;99646.71;1772945;79;20957;-61
2023/05/24 07:16:10;;;;;;;8.15;5.28;;;;;;;17.06;63.03;99650.28;1773556;79;20993;-65
2023/05/24 07:18:37;;;;;;;6.62;3.90;;;;;;;16.92;63.02;99643.89;1738872;81;20964;-65
2023/05/24 07:21:03;;;;;;;6.22;3.87;;;;;;;16.87;63.03;99643.39;1775475;79;21009;-66
2023/05/24 07:23:30;;;;;;;6.00;4.12;;;;;;;16.95;63.20;99647.62;1747179;81;21021;-61
2023/05/24 07:25:56;;;;;;;6.65;3.92;;;;;;;16.98;63.07;99647.38;1735057;81;21480;-66
2023/05/24 07:28:23;;;;;;;4.75;3.58;;;;;;;17.04;62.87;99642.96;1740336;81;20970;-61
2023/05/24 07:30:50;;;;;;;7.53;4.17;;;;;;;17.07;62.87;99649.31;1774174;79;20981;-61
2023/05/24 07:33:16;;;;;;;6.62;3.67;;;;;;;17.06;62.99;99658.20;1772496;79;21499;-61
2023/05/24 07:35:44;;;;;;;5.35;3.67;;;;;;;17.12;62.92;99652.45;1743512;79;21051;-59
2023/05/24 07:38:11;;;;;;;7.30;3.85;;;;;;;17.17;62.81;99649.48;1744222;80;20951;-58
2023/05/24 07:40:38;;;;;;;9.95;3.85;;;;;;;17.16;62.70;99656.53;1747449;80;20928;-61
2023/05/24 07:43:04;;;;;;;8.80;4.47;;;;;;;17.23;62.78;99648.52;1743651;80;20960;-61
2023/05/24 07:45:30;;;;;;;7.92;4.60;;;;;;;17.26;62.57;99655.86;1780812;80;20982;-60
2023/05/24 07:47:57;;;;;;;7.97;3.85;;;;;;;17.22;62.67;99656.09;1778044;80;20988;-61
2023/05/24 07:50:23;;;;;;;7.22;4.15;;;;;;;17.31;62.87;99658.95;1794388;80;21051;-64
2023/05/24 07:52:50;;;;;;;6.92;3.95;;;;;;;17.38;62.76;99670.74;1757147;80;21394;-62
2023/05/24 07:55:16;;;;;;;9.58;4.35;;;;;;;17.40;62.78;99675.44;1794640;78;21489;-61
2023/05/24 07:57:42;;;;;;;5.53;3.58;;;;;;;17.46;62.83;99669.67;1775530;79;21007;-73
2023/05/24 08:00:15;;;;;;;11.88;4.30;;;;;;;17.66;62.83;99674.74;1774844;81;20974;-65
2023/05/24 08:02:45;;;;;;;6.72;3.52;;;;;;;17.96;63.24;99676.83;1777425;80;21006;-63
2023/05/24 08:05:15;;;;;;;9.48;4.15;;;;;;;18.38;63.12;99677.02;1773007;79;21009;-62
2023/05/24 08:07:41;;;;;;;5.75;3.67;;;;;;;18.80;63.08;99683.78;1790829;78;20977;-62
2023/05/24 08:10:12;;;;;;;5.40;4.10;;;;;;;19.33;63.06;99679.80;1786228;80;20952;-62
2023/05/24 08:12:39;;;;;;;11.43;4.40;;;;;;;19.84;62.52;99680.80;1794601;78;20964;-62
2023/05/24 08:15:07;;;;;;;5.67;4.15;;;;;;;20.31;62.14;99677.97;1794235;78;20951;-64
2023/05/24 08:17:33;;;;;;;14.83;3.98;;;;;;;20.77;62.13;99677.84;1791301;78;22352;-63
2023/05/24 08:20:02;;;;;;;8.65;3.90;;;;;;;21.37;62.12;99687.47;1795971;78;21018;-65
2023/05/24 08:22:28;;;;;;;8.33;3.30;;;;;;;22.60;63.98;99685.09;1793902;79;21427;-64
2023/05/24 08:24:54;;;;;;;8.50;3.83;;;;;;;24.78;63.67;99676.45;1791564;79;21557;-64
2023/05/24 08:27:21;;;;;;;4.95;3.60;;;;;;;26.84;61.97;99673.58;1792260;79;21388;-66
2023/05/24 08:29:47;;;;;;;7.67;3.87;;;;;;;27.85;59.61;99676.36;1793462;78;21538;-67
2023/05/24 08:32:17;;;;;;;8.18;4.62;;;;;;;28.19;58.33;99677.62;1788221;78;21093;-65
2023/05/24 08:34:51;;;;;;;12.25;5.17;;;;;;;29.14;57.93;99671.75;1782285;78;21033;-66
2023/05/24 08:37:19;;;;;;;7.78;3.87;;;;;;;29.93;57.57;99678.71;1785332;79;21078;-66
2023/05/24 08:39:48;;;;;;;10.65;3.67;;;;;;;30.64;56.36;99674.33;1778851;78;21085;-68
2023/05/24 08:42:17;;;;;;;6.90;3.55;;;;;;;30.60;54.73;99683.34;1784905;78;21002;-75
2023/05/24 08:44:52;;;;;;;7.50;3.65;;;;;;;30.99;54.53;99681.78;1788162;80;21030;-68
2023/05/24 08:47:24;;;;;;;12.68;3.55;;;;;;;32.27;54.49;99675.47;1781510;79;22442;-72
2023/05/24 08:49:54;;;;;;;12.70;3.87;;;;;;;33.58;53.61;99673.97;1782888;78;21612;-65
2023/05/24 08:52:23;;;;;;;10.90;3.72;;;;;;;34.38;51.91;99672.22;1782714;80;21015;-63
2023/05/24 08:54:51;;;;;;;10.65;4.00;;;;;;;35.21;49.29;99676.85;1785531;80;20962;-63
2023/05/24 08:57:19;;;;;;;5.30;3.40;;;;;;;34.95;47.62;99680.78;1790757;78;21133;-64
2023/05/24 08:59:45;;;;;;;9.43;3.50;;;;;;;34.96;47.24;99682.45;1790278;78;21030;-67
2023/05/24 09:02:16;;;;;;;28.02;4.37;;;;;;;34.54;46.51;99685.95;1766466;80;21003;-72
2023/05/24 09:04:43;;;;;;;6.55;2.90;;;;;;;34.13;45.10;99691.30;1748823;80;21046;-63
2023/05/24 09:07:11;;;;;;;10.45;3.00;;;;;;;33.29;43.43;99684.09;1787628;78;21076;-63
2023/05/24 09:09:43;;;;;;;7.03;3.10;;;;;;;32.41;43.87;99688.92;1788784;79;21067;-71
2023/05/24 09:12:12;;;;;;;8.75;3.70;;;;;;;32.48;43.28;99689.73;1794878;78;20981;-70
2023/05/24 09:14:41;;;;;;;4.83;2.92;;;;;;;32.27;42.55;99691.69;1791190;77;21100;-64
2023/05/24 09:17:08;;;;;;;4.10;3.30;;;;;;;31.77;41.53;99696.80;1745334;80;21743;-65
2023/05/24 09:19:35;;;;;;;8.50;2.92;;;;;;;30.62;41.56;99693.94;1739409;79;21066;-62
2023/05/24 09:22:01;;;;;;;6.75;3.10;;;;;;;30.23;41.10;99696.80;1793418;78;21092;-72
2023/05/24 09:24:27;;;;;;;14.00;3.35;;;;;;;29.53;40.67;99694.08;1788197;77;21009;-66
2023/05/24 09:26:53;;;;;;;4.00;3.30;;;;;;;29.19;40.83;99695.67;1788491;78;21725;-63
2023/05/24 09:29:23;;;;;;;11.43;3.42;;;;;;;28.63;40.19;99697.38;1788874;78;21548;-62
2023/05/24 09:31:51;;;;;;;14.43;3.98;;;;;;;28.37;40.82;99701.89;1783596;78;20989;-66
2023/05/24 09:34:17;;;;;;;12.65;3.55;;;;;;;28.74;40.43;99698.23;1785560;78;21033;-64
2023/05/24 09:36:47;;;;;;;;;;;;;;;28.73;40.20;99698.70;1757631;80;21513;-68
2023/05/24 09:39:15;;;;;;;6.62;3.22;;;;;;;28.97;39.99;99704.75;1786178;79;20178;-66
2023/05/24 09:41:44;;;;;;;7.60;3.20;;;;;;;29.05;40.06;99706.52;1803569;78;20944;-73
2023/05/24 09:44:14;;;;;;;17.50;3.70;;;;;;;29.16;39.79;99704.66;1755846;80;21458;-64
2023/05/24 09:46:40;;;;;;;6.62;3.50;;;;;;;28.96;39.70;99711.13;1755193;80;21026;-73
2023/05/24 09:49:07;;;;;;;7.58;3.50;;;;;;;28.98;39.45;99711.78;1763256;80;21336;-64
2023/05/24 09:51:37;;;;;;;12.10;3.65;;;;;;;28.69;39.32;99714.08;1754113;80;21557;-67
2023/05/24 09:54:05;;;;;;;8.58;3.52;;;;;;;28.69;39.52;99710.87;1789933;78;20992;-66
2023/05/24 09:56:34;;;;;;;7.85;3.52;;;;;;;28.67;39.29;99715.59;1797485;78;21004;-64
2023/05/24 09:59:07;;;;;;;5.67;3.75;;;;;;;28.67;39.48;99716.94;1797228;78;21597;-69
2023/05/24 10:01:34;;;;;;;8.80;3.17;;;;;;;28.84;39.65;99709.98;1793869;78;21457;-66
2023/05/24 10:04:05;;;;;;;10.75;3.12;;;;;;;29.63;39.48;99716.61;1793631;78;21025;-64
2023/05/24 10:06:37;;;;;;;6.95;3.50;;;;;;;29.84;39.62;99715.20;1799009;78;21074;-68
2023/05/24 10:09:07;;;;;;;11.43;3.12;;;;;;;30.70;39.79;99712.61;1792167;79;21043;-63
2023/05/24 10:11:36;;;;;;;7.50;3.33;;;;;;;32.13;40.04;99714.39;1796344;78;21716;-72
2023/05/24 10:14:08;;;;;;;10.82;3.27;;;;;;;34.18;39.71;99709.06;1799641;78;21532;-73
2023/05/24 10:16:37;;;;;;;6.20;3.37;;;;;;;35.64;38.90;99702.84;1796844;78;21069;-63
2023/05/24 10:19:04;;;;;;;6.35;2.90;;;;;;;36.32;37.87;99703.20;1796935;78;21007;-64
2023/05/24 10:21:32;;;;;;;7.17;3.08;;;;;;;37.51;38.30;99703.17;1793214;78;21573;-64
2023/05/24 10:24:01;;;;;;;8.45;2.60;;;;;;;39.17;38.07;99702.38;1798911;78;21411;-64
2023/05/24 10:26:31;;;;;;;9.05;3.00;;;;;;;41.74;36.99;99694.36;1790456;78;21131;-63
2023/05/24 10:29:04;;;;;;;6.12;2.47;;;;;;;42.82;35.23;99687.23;1745791;80;21125;-63
2023/05/24 10:31:34;;;;;;;8.43;3.08;;;;;;;43.95;34.21;99697.17;1796571;78;20992;-72
2023/05/24 10:34:04;;;;;;;8.13;2.65;;;;;;;43.76;32.61;99692.41;1761196;80;21658;-61
2023/05/24 10:36:32;;;;;;;5.22;2.60;;;;;;;43.20;31.90;99692.98;1761106;80;21201;-62
2023/05/24 10:38:59;;;;;;;4.35;2.30;;;;;;;41.57;30.65;99695.50;1759860;80;21533;-64
2023/05/24 10:41:26;;;;;;;4.78;2.60;;;;;;;42.44;31.11;99697.91;1744114;80;20976;-63
2023/05/24 10:43:53;;;;;;;9.68;2.95;;;;;;;43.43;29.84;99698.80;1780742;79;20982;-64
2023/05/24 10:46:21;;;;;;;10.90;2.92;;;;;;;44.65;28.88;99705.55;1760618;80;20998;-63
2023/05/24 10:49:01;;;;;;;12.85;2.62;;;;;;;45.32;28.18;99698.94;1791738;78;22485;-63
2023/05/24 10:51:37;;;;;;;5.50;2.30;;;;;;;46.38;27.44;99688.26;1769694;80;21003;-64
2023/05/24 10:54:12;;;;;;;4.05;2.10;;;;;;;45.07;25.79;99706.55;1757014;80;21005;-63
2023/05/24 10:56:41;;;;;;;4.87;2.08;;;;;;;43.86;25.60;99701.63;1750441;80;21088;-64
2023/05/24 10:59:08;;;;;;;2.50;1.80;;;;;;;43.56;24.67;99706.39;1793038;78;21082;-65
2023/05/24 11:01:35;;;;;;;4.72;2.12;;;;;;;43.06;23.37;99702.97;1752249;80;20966;-63
2023/05/24 11:04:08;;;;;;;5.35;2.20;;;;;;;41.33;22.83;99702.64;1765093;80;21009;-61
2023/05/24 11:06:48;;;;;;;8.80;2.33;;;;;;;39.85;23.03;99713.23;1801487;78;20966;-61
2023/05/24 11:09:19;;;;;;;6.95;2.00;;;;;;;38.53;22.00;99711.04;1778335;78;21041;-66
2023/05/24 11:11:51;;;;;;;4.50;2.10;;;;;;;36.11;21.86;99721.00;1793846;78;21007;-62
2023/05/24 11:14:19;;;;;;;4.17;2.27;;;;;;;34.72;21.77;99714.91;1779296;79;21154;-63
2023/05/24 11:16:48;;;;;;;7.62;2.45;;;;;;;33.60;22.12;99715.16;1795972;78;20944;-66
2023/05/24 11:19:18;;;;;;;2.65;2.00;;;;;;;33.16;22.45;99710.73;1779517;79;21579;-66
2023/05/24 11:21:50;;;;;;;7.42;2.87;;;;;;;33.60;22.63;99704.86;1794663;78;21026;-62
2023/05/24 11:24:18;;;;;;;5.45;2.20;;;;;;;34.14;22.42;99717.33;1754765;80;21003;-68
2023/05/24 11:26:45;;;;;;;3.45;2.08;;;;;;;33.68;22.32;99702.40;1782278;78;21134;-62
2023/05/24 11:29:21;;;;;;;5.30;2.27;;;;;;;34.22;22.87;99708.89;1790938;78;20954;-62
2023/05/24 11:31:48;;;;;;;5.37;2.75;;;;;;;33.96;22.15;99710.02;1763593;80;21009;-69
2023/05/24 11:34:16;;;;;;;5.67;2.50;;;;;;;32.88;22.74;99713.81;1788201;78;20954;-67
2023/05/24 11:36:43;;;;;;;3.87;2.52;;;;;;;33.24;23.04;99710.98;1777702;78;21060;-67
2023/05/24 11:39:10;;;;;;;5.95;2.75;;;;;;;34.02;22.94;99711.28;1782027;79;21640;-66